createdAt,value
2019-02-21T00:01:18.686Z,4.88
2019-02-21T00:06:24.321Z,4.96
2019-02-21T00:11:30.498Z,4.89
2019-02-21T00:16:36.624Z,4.93
2019-02-21T00:21:42.702Z,4.92
2019-02-21T00:26:48.306Z,4.91
2019-02-21T00:31:54.620Z,4.90
2019-02-21T00:37:00.705Z,4.91
2019-02-21T00:42:06.808Z,4.87
2019-02-21T00:47:13.279Z,4.89
2019-02-21T00:52:19.372Z,4.94
2019-02-21T00:57:25.484Z,4.88
2019-02-21T01:02:31.571Z,4.93
2019-02-21T01:07:38.201Z,4.86
2019-02-21T01:12:44.119Z,4.82
2019-02-21T01:17:49.930Z,4.91
2019-02-21T01:22:55.609Z,4.89
2019-02-21T01:28:01.716Z,4.83
2019-02-21T01:33:07.379Z,4.81
2019-02-21T01:38:13.282Z,4.83
2019-02-21T01:43:18.932Z,4.84
2019-02-21T01:48:24.875Z,4.77
2019-02-21T01:53:30.555Z,4.78
2019-02-21T01:58:36.508Z,4.73
2019-02-21T02:03:42.186Z,4.71
2019-02-21T02:08:47.944Z,4.74
2019-02-21T02:13:53.567Z,4.76
2019-02-21T02:18:59.271Z,4.80
2019-02-21T02:24:04.954Z,4.77
2019-02-21T02:29:10.983Z,4.76
2019-02-21T02:34:16.872Z,4.83
2019-02-21T02:39:22.483Z,5.07
2019-02-21T02:44:28.126Z,4.86
2019-02-21T02:49:33.967Z,4.55
2019-02-21T02:54:39.580Z,4.46
2019-02-21T02:59:45.522Z,4.49
2019-02-21T03:04:51.232Z,4.63
2019-02-21T03:09:57.085Z,4.62
2019-02-21T03:15:02.677Z,4.51
2019-02-21T03:20:09.506Z,4.48
2019-02-21T03:25:15.173Z,4.79
2019-02-21T03:30:20.993Z,4.93
2019-02-21T03:35:26.671Z,5.08
2019-02-21T03:40:32.782Z,5.07
2019-02-21T03:45:38.894Z,4.94
2019-02-21T03:50:44.985Z,4.73
2019-02-21T03:55:50.698Z,4.66
2019-02-21T04:00:56.522Z,4.70
2019-02-21T04:06:02.317Z,4.61
2019-02-21T04:11:08.209Z,4.57
2019-02-21T04:16:13.826Z,4.61
2019-02-21T04:21:19.804Z,4.60
2019-02-21T04:26:25.674Z,4.55
2019-02-21T04:31:31.303Z,4.45
2019-02-21T04:36:36.929Z,4.49
2019-02-21T04:41:42.670Z,4.54
2019-02-21T04:46:48.333Z,4.56
2019-02-21T04:51:54.070Z,4.71
2019-02-21T04:56:59.674Z,4.67
2019-02-21T05:02:05.700Z,4.72
2019-02-21T05:07:11.594Z,4.70
2019-02-21T05:12:17.412Z,4.74
2019-02-21T05:17:23.517Z,4.69
2019-02-21T05:22:29.318Z,4.58
2019-02-21T05:27:37.834Z,4.55
2019-02-21T05:32:55.295Z,4.52
2019-02-21T05:38:10.128Z,4.45
2019-02-21T05:43:44.220Z,4.49
2019-02-21T05:49:17.017Z,4.51
2019-02-21T05:54:31.119Z,4.51
2019-02-21T06:00:10.806Z,4.55
2019-02-21T06:05:22.525Z,4.59
2019-02-21T06:10:59.077Z,4.60
2019-02-21T06:16:21.541Z,4.66
2019-02-21T06:21:50.897Z,4.62
2019-02-21T06:27:15.684Z,4.62
2019-02-21T06:32:21.595Z,4.79
2019-02-21T06:37:27.212Z,4.78
2019-02-21T06:42:33.009Z,4.91
2019-02-21T06:47:38.671Z,5.01
2019-02-21T06:52:44.523Z,5.00
2019-02-21T06:57:50.237Z,5.14
2019-02-21T07:02:56.444Z,5.16
2019-02-21T07:08:02.340Z,5.30
2019-02-21T07:13:07.969Z,5.46
2019-02-21T07:18:13.822Z,5.62
2019-02-21T07:23:19.978Z,5.74
2019-02-21T07:28:27.742Z,5.84
2019-02-21T07:33:33.278Z,5.81
2019-02-21T07:38:38.909Z,5.81
2019-02-21T07:43:45.229Z,5.76
2019-02-21T07:48:51.024Z,5.89
2019-02-21T07:53:56.971Z,6.03
2019-02-21T07:59:03.010Z,6.21
2019-02-21T08:04:08.775Z,6.12
2019-02-21T08:09:15.005Z,6.15
2019-02-21T08:14:20.892Z,6.35
2019-02-21T08:19:26.872Z,6.29
2019-02-21T08:24:32.517Z,6.47
2019-02-21T08:29:38.464Z,6.54
2019-02-21T08:34:48.276Z,6.67
2019-02-21T08:39:54.629Z,6.75
2019-02-21T08:45:00.378Z,6.84
2019-02-21T08:50:06.328Z,6.83
2019-02-21T08:55:11.973Z,6.92
2019-02-21T09:00:17.829Z,7.12
2019-02-21T09:05:23.739Z,7.14
2019-02-21T09:10:29.356Z,7.33
2019-02-21T09:15:35.177Z,7.42
2019-02-21T09:20:41.126Z,7.26
2019-02-21T09:25:49.492Z,7.53
2019-02-21T09:30:54.445Z,7.81
2019-02-21T09:36:00.283Z,7.81
2019-02-21T09:41:06.019Z,7.87
2019-02-21T09:46:12.571Z,7.81
2019-02-21T09:51:18.537Z,8.06
2019-02-21T09:56:30.276Z,8.05
2019-02-21T10:01:32.352Z,8.17
2019-02-21T10:06:38.382Z,8.18
2019-02-21T10:11:44.363Z,8.44
2019-02-21T10:16:50.091Z,8.36
2019-02-21T10:21:55.774Z,8.56
2019-02-21T10:27:01.698Z,9.03
2019-02-21T10:32:07.546Z,8.61
2019-02-21T10:37:13.310Z,8.90
2019-02-21T10:42:18.944Z,8.89
2019-02-21T10:47:24.626Z,9.00
2019-02-21T10:52:30.656Z,8.92
2019-02-21T10:57:36.511Z,9.30
2019-02-21T11:02:42.302Z,9.52
2019-02-21T11:07:48.531Z,9.34
2019-02-21T11:12:54.380Z,9.11
2019-02-21T11:18:00.003Z,9.22
2019-02-21T11:23:06.623Z,9.11
2019-02-21T11:28:12.784Z,9.21
2019-02-21T11:33:18.747Z,9.39
2019-02-21T11:38:25.013Z,9.45
2019-02-21T11:43:31.079Z,9.22
2019-02-21T11:48:36.698Z,9.19
2019-02-21T11:53:42.533Z,9.37
2019-02-21T11:58:48.210Z,9.58
2019-02-21T12:03:54.442Z,9.45
2019-02-21T12:09:00.370Z,9.39
2019-02-21T12:14:06.372Z,9.38
2019-02-21T12:19:12.476Z,9.54
2019-02-21T12:24:18.110Z,9.33
2019-02-21T12:29:23.840Z,9.20
2019-02-21T12:34:29.754Z,9.08
2019-02-21T12:39:36.397Z,9.28
2019-02-21T12:44:42.321Z,9.16
2019-02-21T12:49:48.552Z,9.25
2019-02-21T12:54:54.481Z,9.25
2019-02-21T13:00:00.419Z,9.33
2019-02-21T13:05:06.984Z,9.39
2019-02-21T13:10:14.654Z,9.23
2019-02-21T13:15:20.571Z,9.28
2019-02-21T13:20:26.218Z,9.17
2019-02-21T13:25:31.926Z,9.21
2019-02-21T13:30:37.905Z,9.16
2019-02-21T13:35:52.237Z,9.28
2019-02-21T13:40:51.476Z,9.21
2019-02-21T13:45:58.077Z,9.15
2019-02-21T13:51:03.678Z,9.14
2019-02-21T13:56:09.482Z,9.19
2019-02-21T14:01:15.396Z,9.21
2019-02-21T14:06:21.164Z,9.09
2019-02-21T14:11:27.148Z,9.12
2019-02-21T14:16:32.965Z,8.95
2019-02-21T14:21:38.773Z,8.97
2019-02-21T14:26:44.932Z,8.90
2019-02-21T14:31:50.752Z,8.83
2019-02-21T14:36:56.485Z,8.82
2019-02-21T14:42:04.502Z,8.67
2019-02-21T14:47:10.517Z,8.48
2019-02-21T14:52:16.423Z,8.37
2019-02-21T14:57:22.093Z,8.32
2019-02-21T15:02:28.357Z,8.31
2019-02-21T15:07:34.365Z,8.27
2019-02-21T15:12:40.360Z,8.25
2019-02-21T15:17:46.595Z,8.17
2019-02-21T15:22:53.996Z,8.17
2019-02-21T15:28:00.064Z,8.09
2019-02-21T15:33:06.380Z,7.99
2019-02-21T15:38:19.900Z,7.88
2019-02-21T15:43:20.027Z,7.76
2019-02-21T15:48:26.093Z,7.70
2019-02-21T15:53:32.174Z,7.57
2019-02-21T15:58:38.309Z,7.40
2019-02-21T16:03:44.606Z,7.32
2019-02-21T16:08:50.382Z,7.23
2019-02-21T16:14:03.351Z,7.14
2019-02-21T16:19:04.391Z,6.95
2019-02-21T16:24:10.078Z,6.89
2019-02-21T16:29:16.109Z,6.79
2019-02-21T16:34:22.214Z,6.64
2019-02-21T16:39:28.349Z,6.57
2019-02-21T16:44:33.960Z,6.60
2019-02-21T16:49:39.924Z,6.52
2019-02-21T16:54:46.249Z,6.40
2019-02-21T16:59:52.190Z,6.36
2019-02-21T17:04:58.578Z,6.26
2019-02-21T17:10:04.628Z,6.18
2019-02-21T17:15:11.918Z,6.16
2019-02-21T17:20:18.150Z,6.01
2019-02-21T17:25:24.005Z,5.95
2019-02-21T17:30:29.775Z,5.79
2019-02-21T17:35:35.516Z,5.66
2019-02-21T17:40:41.338Z,5.62
2019-02-21T17:45:47.539Z,5.53
2019-02-21T17:50:53.913Z,5.41
2019-02-21T17:55:59.559Z,5.40
2019-02-21T18:01:05.612Z,5.24
2019-02-21T18:06:11.351Z,5.17
2019-02-21T18:11:17.422Z,5.09
2019-02-21T18:16:23.311Z,5.00
2019-02-21T18:21:29.413Z,4.83
2019-02-21T18:26:35.097Z,4.81
2019-02-21T18:31:41.433Z,4.70
2019-02-21T18:36:47.230Z,4.68
2019-02-21T18:41:53.463Z,4.62
2019-02-21T18:46:59.639Z,4.61
2019-02-21T18:52:05.385Z,4.58
2019-02-21T18:57:12.317Z,4.60
2019-02-21T19:02:19.931Z,4.62
2019-02-21T19:07:25.589Z,4.54
2019-02-21T19:12:31.967Z,4.65
2019-02-21T19:17:37.577Z,4.52
2019-02-21T19:22:43.388Z,4.47
2019-02-21T19:27:49.121Z,4.45
2019-02-21T19:32:54.870Z,4.40
2019-02-21T19:38:09.813Z,4.44
2019-02-21T19:43:08.015Z,4.40
2019-02-21T19:48:13.732Z,4.46
2019-02-21T19:53:19.422Z,4.49
2019-02-21T19:58:25.273Z,4.50
2019-02-21T20:03:30.880Z,4.47
2019-02-21T20:08:39.627Z,4.47
2019-02-21T20:13:45.400Z,4.43
2019-02-21T20:18:51.137Z,4.45
2019-02-21T20:23:56.768Z,4.48
2019-02-21T20:29:02.573Z,4.44
2019-02-21T20:34:08.257Z,4.39
2019-02-21T20:39:14.142Z,4.46
2019-02-21T20:44:19.748Z,4.44
2019-02-21T20:49:25.560Z,4.48
2019-02-21T20:54:31.385Z,4.46
2019-02-21T20:59:37.131Z,4.47
2019-02-21T21:04:42.838Z,4.47
2019-02-21T21:09:48.722Z,4.43
2019-02-21T21:14:54.364Z,4.40
2019-02-21T21:20:00.335Z,4.44
2019-02-21T21:25:07.180Z,4.40
2019-02-21T21:30:13.034Z,4.41
2019-02-21T21:35:19.083Z,4.48
2019-02-21T21:40:25.173Z,4.52
2019-02-21T21:45:30.814Z,4.53
2019-02-21T21:50:36.512Z,4.59
2019-02-21T21:55:42.180Z,4.56
2019-02-21T22:00:48.434Z,4.63
2019-02-21T22:05:54.596Z,4.68
2019-02-21T22:11:01.105Z,4.75
2019-02-21T22:16:07.752Z,4.74
2019-02-21T22:21:14.045Z,4.77
2019-02-21T22:26:20.379Z,4.82
2019-02-21T22:31:26.732Z,4.79
2019-02-21T22:36:32.926Z,4.76
2019-02-21T22:41:39.449Z,4.79
2019-02-21T22:46:45.992Z,4.84
2019-02-21T22:51:52.171Z,4.82
2019-02-21T22:56:58.223Z,4.81
2019-02-21T23:02:04.492Z,4.82
2019-02-21T23:07:42.328Z,4.79
2019-02-21T23:12:47.240Z,4.83
2019-02-21T23:17:53.312Z,4.85
2019-02-21T23:22:59.522Z,4.86
2019-02-21T23:28:06.061Z,4.89
2019-02-21T23:33:12.743Z,4.87
2019-02-21T23:38:19.342Z,4.89
2019-02-21T23:43:26.096Z,4.88
2019-02-21T23:48:32.839Z,4.91
2019-02-21T23:53:38.206Z,4.91
2019-02-21T23:58:44.524Z,4.89
